sensor_id;sensor_type;location;lat;lon;timestamp;P1;durP1;ratioP1;P2;durP2;ratioP2
14169;SDS011;63889;50.596;8.690;2022-12-18T00:01:02;39.90;;;12.52;;
14169;SDS011;63889;50.596;8.690;2022-12-18T00:03:33;40.53;;;12.10;;
14169;SDS011;63889;50.596;8.690;2022-12-18T00:05:58;40.50;;;13.15;;
14169;SDS011;63889;50.596;8.690;2022-12-18T00:08:24;49.58;;;13.18;;
14169;SDS011;63889;50.596;8.690;2022-12-18T00:10:50;41.22;;;12.45;;
14169;SDS011;63889;50.596;8.690;2022-12-18T00:13:16;41.63;;;13.52;;
14169;SDS011;63889;50.596;8.690;2022-12-18T00:15:41;39.75;;;12.32;;
14169;SDS011;63889;50.596;8.690;2022-12-18T00:18:07;40.28;;;12.27;;
14169;SDS011;63889;50.596;8.690;2022-12-18T00:20:36;42.15;;;12.55;;
14169;SDS011;63889;50.596;8.690;2022-12-18T00:23:03;45.78;;;14.27;;
14169;SDS011;63889;50.596;8.690;2022-12-18T00:25:32;37.17;;;12.15;;
14169;SDS011;63889;50.596;8.690;2022-12-18T00:27:59;42.83;;;11.85;;
14169;SDS011;63889;50.596;8.690;2022-12-18T00:30:25;42.78;;;12.07;;
14169;SDS011;63889;50.596;8.690;2022-12-18T00:32:50;38.78;;;11.63;;
14169;SDS011;63889;50.596;8.690;2022-12-18T00:35:16;38.47;;;12.80;;
14169;SDS011;63889;50.596;8.690;2022-12-18T00:37:41;35.85;;;11.55;;
14169;SDS011;63889;50.596;8.690;2022-12-18T00:40:07;37.17;;;11.85;;
14169;SDS011;63889;50.596;8.690;2022-12-18T00:42:33;45.47;;;11.77;;
14169;SDS011;63889;50.596;8.690;2022-12-18T00:45:17;37.05;;;11.40;;
14169;SDS011;63889;50.596;8.690;2022-12-18T00:47:43;31.85;;;11.20;;
14169;SDS011;63889;50.596;8.690;2022-12-18T00:50:08;35.10;;;12.15;;
14169;SDS011;63889;50.596;8.690;2022-12-18T00:52:34;33.90;;;10.10;;
14169;SDS011;63889;50.596;8.690;2022-12-18T00:54:59;33.42;;;10.02;;
14169;SDS011;63889;50.596;8.690;2022-12-18T00:57:25;32.65;;;11.80;;
14169;SDS011;63889;50.596;8.690;2022-12-18T00:59:50;37.45;;;11.57;;
14169;SDS011;63889;50.596;8.690;2022-12-18T01:02:16;31.83;;;10.27;;
14169;SDS011;63889;50.596;8.690;2022-12-18T01:04:41;29.33;;;9.65;;
14169;SDS011;63889;50.596;8.690;2022-12-18T01:07:07;37.55;;;12.05;;
14169;SDS011;63889;50.596;8.690;2022-12-18T01:09:32;33.50;;;12.13;;
14169;SDS011;63889;50.596;8.690;2022-12-18T01:11:59;40.20;;;13.10;;
14169;SDS011;63889;50.596;8.690;2022-12-18T01:14:24;42.00;;;11.93;;
14169;SDS011;63889;50.596;8.690;2022-12-18T01:16:50;37.50;;;10.93;;
14169;SDS011;63889;50.596;8.690;2022-12-18T01:19:15;47.42;;;12.95;;
14169;SDS011;63889;50.596;8.690;2022-12-18T01:21:41;35.03;;;11.23;;
14169;SDS011;63889;50.596;8.690;2022-12-18T01:24:06;43.67;;;12.82;;
14169;SDS011;63889;50.596;8.690;2022-12-18T01:26:32;36.05;;;12.25;;
14169;SDS011;63889;50.596;8.690;2022-12-18T01:28:58;41.97;;;12.98;;
14169;SDS011;63889;50.596;8.690;2022-12-18T01:31:25;42.75;;;11.40;;
14169;SDS011;63889;50.596;8.690;2022-12-18T01:33:55;38.33;;;11.32;;
14169;SDS011;63889;50.596;8.690;2022-12-18T01:36:37;36.97;;;11.98;;
14169;SDS011;63889;50.596;8.690;2022-12-18T01:39:11;41.88;;;12.70;;
14169;SDS011;63889;50.596;8.690;2022-12-18T01:41:38;46.47;;;13.43;;
14169;SDS011;63889;50.596;8.690;2022-12-18T01:49:59;35.70;;;11.57;;
14169;SDS011;63889;50.596;8.690;2022-12-18T01:55:23;40.17;;;12.07;;
14169;SDS011;63889;50.596;8.690;2022-12-18T01:57:55;32.15;;;11.23;;
14169;SDS011;63889;50.596;8.690;2022-12-18T02:00:23;46.03;;;12.48;;
14169;SDS011;63889;50.596;8.690;2022-12-18T02:02:50;42.42;;;12.10;;
14169;SDS011;63889;50.596;8.690;2022-12-18T02:05:17;30.05;;;10.90;;
14169;SDS011;63889;50.596;8.690;2022-12-18T02:10:24;36.88;;;11.60;;
14169;SDS011;63889;50.596;8.690;2022-12-18T02:13:10;35.00;;;13.10;;
14169;SDS011;63889;50.596;8.690;2022-12-18T02:15:42;41.78;;;13.57;;
14169;SDS011;63889;50.596;8.690;2022-12-18T02:18:20;48.85;;;12.50;;
14169;SDS011;63889;50.596;8.690;2022-12-18T02:26:34;36.53;;;11.70;;
14169;SDS011;63889;50.596;8.690;2022-12-18T02:31:32;43.80;;;12.25;;
14169;SDS011;63889;50.596;8.690;2022-12-18T02:34:08;36.75;;;10.38;;
14169;SDS011;63889;50.596;8.690;2022-12-18T02:36:36;47.10;;;13.38;;
14169;SDS011;63889;50.596;8.690;2022-12-18T02:39:05;44.97;;;13.35;;
14169;SDS011;63889;50.596;8.690;2022-12-18T02:41:34;42.70;;;11.40;;
14169;SDS011;63889;50.596;8.690;2022-12-18T02:44:08;41.33;;;12.73;;
14169;SDS011;63889;50.596;8.690;2022-12-18T02:46:36;39.42;;;12.32;;
14169;SDS011;63889;50.596;8.690;2022-12-18T02:49:12;40.30;;;11.80;;
14169;SDS011;63889;50.596;8.690;2022-12-18T02:51:49;39.25;;;11.20;;
14169;SDS011;63889;50.596;8.690;2022-12-18T02:54:23;38.22;;;12.27;;
14169;SDS011;63889;50.596;8.690;2022-12-18T02:56:55;36.75;;;11.57;;
14169;SDS011;63889;50.596;8.690;2022-12-18T02:59:30;42.45;;;13.35;;
14169;SDS011;63889;50.596;8.690;2022-12-18T03:04:54;35.22;;;10.38;;
14169;SDS011;63889;50.596;8.690;2022-12-18T03:07:35;39.40;;;10.70;;
14169;SDS011;63889;50.596;8.690;2022-12-18T03:10:04;36.05;;;13.50;;
14169;SDS011;63889;50.596;8.690;2022-12-18T03:12:38;32.13;;;11.90;;
14169;SDS011;63889;50.596;8.690;2022-12-18T03:15:10;38.92;;;10.40;;
14169;SDS011;63889;50.596;8.690;2022-12-18T03:17:42;37.47;;;11.45;;
14169;SDS011;63889;50.596;8.690;2022-12-18T03:20:14;36.47;;;11.00;;
14169;SDS011;63889;50.596;8.690;2022-12-18T03:22:45;41.22;;;11.15;;
14169;SDS011;63889;50.596;8.690;2022-12-18T03:25:13;32.90;;;11.02;;
14169;SDS011;63889;50.596;8.690;2022-12-18T03:27:42;38.85;;;12.82;;
14169;SDS011;63889;50.596;8.690;2022-12-18T03:30:12;41.90;;;13.03;;
14169;SDS011;63889;50.596;8.690;2022-12-18T03:32:59;36.25;;;11.20;;
14169;SDS011;63889;50.596;8.690;2022-12-18T03:35:37;45.72;;;12.45;;
14169;SDS011;63889;50.596;8.690;2022-12-18T03:38:06;35.87;;;11.80;;
14169;SDS011;63889;50.596;8.690;2022-12-18T03:40:53;33.00;;;9.75;;
14169;SDS011;63889;50.596;8.690;2022-12-18T03:46:02;35.55;;;11.73;;
14169;SDS011;63889;50.596;8.690;2022-12-18T03:48:37;35.25;;;11.05;;
14169;SDS011;63889;50.596;8.690;2022-12-18T03:51:10;32.03;;;9.82;;
14169;SDS011;63889;50.596;8.690;2022-12-18T03:56:19;33.40;;;10.70;;
14169;SDS011;63889;50.596;8.690;2022-12-18T03:58:47;35.50;;;12.15;;
14169;SDS011;63889;50.596;8.690;2022-12-18T04:01:15;32.30;;;11.00;;
14169;SDS011;63889;50.596;8.690;2022-12-18T04:03:42;39.60;;;11.30;;
14169;SDS011;63889;50.596;8.690;2022-12-18T04:06:09;36.63;;;11.57;;
14169;SDS011;63889;50.596;8.690;2022-12-18T04:08:36;36.05;;;12.30;;
14169;SDS011;63889;50.596;8.690;2022-12-18T04:11:03;36.85;;;11.32;;
14169;SDS011;63889;50.596;8.690;2022-12-18T04:13:30;33.15;;;10.82;;
14169;SDS011;63889;50.596;8.690;2022-12-18T04:15:59;36.30;;;11.93;;
14169;SDS011;63889;50.596;8.690;2022-12-18T04:18:24;42.95;;;11.27;;
14169;SDS011;63889;50.596;8.690;2022-12-18T04:20:50;34.55;;;10.98;;
14169;SDS011;63889;50.596;8.690;2022-12-18T04:23:16;33.80;;;11.02;;
14169;SDS011;63889;50.596;8.690;2022-12-18T04:25:41;32.45;;;9.48;;
14169;SDS011;63889;50.596;8.690;2022-12-18T04:28:07;28.08;;;8.68;;
14169;SDS011;63889;50.596;8.690;2022-12-18T04:30:32;29.00;;;9.45;;
14169;SDS011;63889;50.596;8.690;2022-12-18T04:32:58;28.30;;;10.45;;
14169;SDS011;63889;50.596;8.690;2022-12-18T04:35:23;31.77;;;10.07;;
14169;SDS011;63889;50.596;8.690;2022-12-18T04:37:49;33.65;;;8.82;;
14169;SDS011;63889;50.596;8.690;2022-12-18T04:40:15;31.15;;;11.45;;
14169;SDS011;63889;50.596;8.690;2022-12-18T04:42:40;35.17;;;11.98;;
14169;SDS011;63889;50.596;8.690;2022-12-18T04:45:06;36.00;;;10.30;;
14169;SDS011;63889;50.596;8.690;2022-12-18T04:47:32;29.52;;;9.98;;
14169;SDS011;63889;50.596;8.690;2022-12-18T04:49:58;37.28;;;11.15;;
14169;SDS011;63889;50.596;8.690;2022-12-18T04:52:23;40.15;;;11.32;;
14169;SDS011;63889;50.596;8.690;2022-12-18T04:54:49;35.30;;;10.85;;
14169;SDS011;63889;50.596;8.690;2022-12-18T04:57:14;30.23;;;9.68;;
14169;SDS011;63889;50.596;8.690;2022-12-18T04:59:40;35.40;;;10.40;;
14169;SDS011;63889;50.596;8.690;2022-12-18T05:02:05;30.95;;;10.20;;
14169;SDS011;63889;50.596;8.690;2022-12-18T05:04:31;34.13;;;11.13;;
14169;SDS011;63889;50.596;8.690;2022-12-18T05:06:56;25.52;;;10.40;;
14169;SDS011;63889;50.596;8.690;2022-12-18T05:09:22;29.65;;;9.13;;
14169;SDS011;63889;50.596;8.690;2022-12-18T05:11:48;33.05;;;9.90;;
14169;SDS011;63889;50.596;8.690;2022-12-18T05:14:14;38.80;;;10.23;;
14169;SDS011;63889;50.596;8.690;2022-12-18T05:16:39;32.83;;;9.60;;
14169;SDS011;63889;50.596;8.690;2022-12-18T05:19:05;32.42;;;9.35;;
14169;SDS011;63889;50.596;8.690;2022-12-18T05:21:30;30.40;;;9.55;;
14169;SDS011;63889;50.596;8.690;2022-12-18T05:23:56;27.63;;;9.32;;
14169;SDS011;63889;50.596;8.690;2022-12-18T05:26:21;35.65;;;10.52;;
14169;SDS011;63889;50.596;8.690;2022-12-18T05:28:47;34.60;;;10.07;;
14169;SDS011;63889;50.596;8.690;2022-12-18T05:31:13;33.58;;;9.57;;
14169;SDS011;63889;50.596;8.690;2022-12-18T05:33:39;41.55;;;12.27;;
14169;SDS011;63889;50.596;8.690;2022-12-18T05:36:06;34.08;;;10.75;;
14169;SDS011;63889;50.596;8.690;2022-12-18T05:38:33;33.45;;;9.82;;
14169;SDS011;63889;50.596;8.690;2022-12-18T05:41:00;30.58;;;11.30;;
14169;SDS011;63889;50.596;8.690;2022-12-18T05:43:26;38.38;;;10.82;;
14169;SDS011;63889;50.596;8.690;2022-12-18T05:45:53;32.53;;;10.02;;
14169;SDS011;63889;50.596;8.690;2022-12-18T05:48:20;32.45;;;10.75;;
14169;SDS011;63889;50.596;8.690;2022-12-18T05:50:47;28.80;;;9.77;;
14169;SDS011;63889;50.596;8.690;2022-12-18T05:53:14;26.30;;;9.55;;
14169;SDS011;63889;50.596;8.690;2022-12-18T05:55:42;37.67;;;9.13;;
14169;SDS011;63889;50.596;8.690;2022-12-18T05:58:08;28.17;;;9.25;;
14169;SDS011;63889;50.596;8.690;2022-12-18T06:00:37;25.58;;;8.98;;
14169;SDS011;63889;50.596;8.690;2022-12-18T06:05:40;27.95;;;9.93;;
14169;SDS011;63889;50.596;8.690;2022-12-18T06:08:08;24.73;;;8.20;;
14169;SDS011;63889;50.596;8.690;2022-12-18T06:10:34;28.90;;;9.57;;
14169;SDS011;63889;50.596;8.690;2022-12-18T06:13:00;29.75;;;9.52;;
14169;SDS011;63889;50.596;8.690;2022-12-18T06:15:26;27.48;;;9.70;;
14169;SDS011;63889;50.596;8.690;2022-12-18T06:17:51;32.42;;;10.20;;
14169;SDS011;63889;50.596;8.690;2022-12-18T06:20:17;31.88;;;11.13;;
14169;SDS011;63889;50.596;8.690;2022-12-18T06:22:43;35.45;;;10.88;;
14169;SDS011;63889;50.596;8.690;2022-12-18T06:25:09;27.35;;;9.45;;
14169;SDS011;63889;50.596;8.690;2022-12-18T06:27:35;30.30;;;9.43;;
14169;SDS011;63889;50.596;8.690;2022-12-18T06:30:01;28.25;;;9.48;;
14169;SDS011;63889;50.596;8.690;2022-12-18T06:32:27;35.78;;;9.40;;
14169;SDS011;63889;50.596;8.690;2022-12-18T06:34:52;21.42;;;7.63;;
14169;SDS011;63889;50.596;8.690;2022-12-18T06:37:20;29.60;;;9.05;;
14169;SDS011;63889;50.596;8.690;2022-12-18T06:39:46;25.42;;;9.43;;
14169;SDS011;63889;50.596;8.690;2022-12-18T06:42:11;31.45;;;10.82;;
14169;SDS011;63889;50.596;8.690;2022-12-18T06:44:37;29.48;;;9.82;;
14169;SDS011;63889;50.596;8.690;2022-12-18T06:47:02;25.58;;;8.90;;
14169;SDS011;63889;50.596;8.690;2022-12-18T06:49:28;23.02;;;9.70;;
14169;SDS011;63889;50.596;8.690;2022-12-18T06:51:53;29.10;;;9.48;;
14169;SDS011;63889;50.596;8.690;2022-12-18T06:54:19;30.95;;;9.93;;
14169;SDS011;63889;50.596;8.690;2022-12-18T06:56:45;30.10;;;9.82;;
14169;SDS011;63889;50.596;8.690;2022-12-18T06:59:11;30.75;;;10.45;;
14169;SDS011;63889;50.596;8.690;2022-12-18T07:01:37;23.42;;;8.00;;
14169;SDS011;63889;50.596;8.690;2022-12-18T07:04:03;32.50;;;9.38;;
14169;SDS011;63889;50.596;8.690;2022-12-18T07:06:28;28.90;;;10.00;;
14169;SDS011;63889;50.596;8.690;2022-12-18T07:08:54;33.13;;;9.18;;
14169;SDS011;63889;50.596;8.690;2022-12-18T07:11:20;25.10;;;9.07;;
14169;SDS011;63889;50.596;8.690;2022-12-18T07:13:45;24.85;;;8.27;;
14169;SDS011;63889;50.596;8.690;2022-12-18T07:16:13;25.70;;;8.38;;
14169;SDS011;63889;50.596;8.690;2022-12-18T07:18:40;26.73;;;9.02;;
14169;SDS011;63889;50.596;8.690;2022-12-18T07:21:06;23.05;;;8.55;;
14169;SDS011;63889;50.596;8.690;2022-12-18T07:23:34;26.75;;;8.90;;
14169;SDS011;63889;50.596;8.690;2022-12-18T07:26:04;28.35;;;9.27;;
14169;SDS011;63889;50.596;8.690;2022-12-18T07:28:31;25.73;;;8.85;;
14169;SDS011;63889;50.596;8.690;2022-12-18T07:30:58;23.65;;;7.80;;
14169;SDS011;63889;50.596;8.690;2022-12-18T07:33:27;22.15;;;8.23;;
14169;SDS011;63889;50.596;8.690;2022-12-18T07:35:53;34.13;;;9.27;;
14169;SDS011;63889;50.596;8.690;2022-12-18T07:38:18;29.88;;;9.13;;
14169;SDS011;63889;50.596;8.690;2022-12-18T07:40:44;30.98;;;10.07;;
14169;SDS011;63889;50.596;8.690;2022-12-18T07:43:09;28.05;;;8.27;;
14169;SDS011;63889;50.596;8.690;2022-12-18T07:45:35;25.90;;;9.13;;
14169;SDS011;63889;50.596;8.690;2022-12-18T07:48:01;26.52;;;9.80;;
14169;SDS011;63889;50.596;8.690;2022-12-18T07:53:11;27.17;;;9.52;;
14169;SDS011;63889;50.596;8.690;2022-12-18T07:55:36;26.23;;;8.60;;
14169;SDS011;63889;50.596;8.690;2022-12-18T07:58:02;26.23;;;8.45;;
14169;SDS011;63889;50.596;8.690;2022-12-18T08:00:29;25.02;;;7.93;;
14169;SDS011;63889;50.596;8.690;2022-12-18T08:02:55;27.35;;;9.50;;
14169;SDS011;63889;50.596;8.690;2022-12-18T08:05:21;28.75;;;10.23;;
14169;SDS011;63889;50.596;8.690;2022-12-18T08:07:47;25.42;;;7.95;;
14169;SDS011;63889;50.596;8.690;2022-12-18T08:10:12;28.73;;;8.60;;
14169;SDS011;63889;50.596;8.690;2022-12-18T08:12:38;31.42;;;10.60;;
14169;SDS011;63889;50.596;8.690;2022-12-18T08:15:04;28.75;;;8.70;;
14169;SDS011;63889;50.596;8.690;2022-12-18T08:17:30;33.42;;;9.80;;
14169;SDS011;63889;50.596;8.690;2022-12-18T08:19:56;27.92;;;9.90;;
14169;SDS011;63889;50.596;8.690;2022-12-18T08:22:21;27.08;;;9.75;;
14169;SDS011;63889;50.596;8.690;2022-12-18T08:24:47;25.80;;;9.43;;
14169;SDS011;63889;50.596;8.690;2022-12-18T08:27:12;24.15;;;7.82;;
14169;SDS011;63889;50.596;8.690;2022-12-18T08:29:38;34.28;;;9.55;;
14169;SDS011;63889;50.596;8.690;2022-12-18T08:32:03;29.45;;;8.73;;
14169;SDS011;63889;50.596;8.690;2022-12-18T08:34:29;32.83;;;9.75;;
14169;SDS011;63889;50.596;8.690;2022-12-18T08:36:55;34.17;;;10.30;;
14169;SDS011;63889;50.596;8.690;2022-12-18T08:39:20;29.85;;;9.30;;
14169;SDS011;63889;50.596;8.690;2022-12-18T08:41:46;22.73;;;8.95;;
14169;SDS011;63889;50.596;8.690;2022-12-18T08:44:31;25.45;;;8.43;;
14169;SDS011;63889;50.596;8.690;2022-12-18T08:47:02;26.90;;;9.85;;
14169;SDS011;63889;50.596;8.690;2022-12-18T08:49:28;29.88;;;8.10;;
14169;SDS011;63889;50.596;8.690;2022-12-18T08:51:54;33.58;;;9.50;;
14169;SDS011;63889;50.596;8.690;2022-12-18T08:54:22;23.92;;;8.45;;
14169;SDS011;63889;50.596;8.690;2022-12-18T08:56:48;25.77;;;9.52;;
14169;SDS011;63889;50.596;8.690;2022-12-18T08:59:14;28.73;;;8.50;;
14169;SDS011;63889;50.596;8.690;2022-12-18T09:01:40;25.15;;;10.00;;
14169;SDS011;63889;50.596;8.690;2022-12-18T09:04:07;23.42;;;8.57;;
14169;SDS011;63889;50.596;8.690;2022-12-18T09:06:33;24.13;;;8.77;;
14169;SDS011;63889;50.596;8.690;2022-12-18T09:08:59;27.50;;;10.15;;
14169;SDS011;63889;50.596;8.690;2022-12-18T09:11:25;28.02;;;10.10;;
14169;SDS011;63889;50.596;8.690;2022-12-18T09:13:52;27.48;;;8.85;;
14169;SDS011;63889;50.596;8.690;2022-12-18T09:16:18;31.05;;;9.82;;
14169;SDS011;63889;50.596;8.690;2022-12-18T09:18:45;24.30;;;9.23;;
14169;SDS011;63889;50.596;8.690;2022-12-18T09:21:12;26.88;;;8.25;;
14169;SDS011;63889;50.596;8.690;2022-12-18T09:23:39;39.65;;;12.07;;
14169;SDS011;63889;50.596;8.690;2022-12-18T09:26:05;28.02;;;10.10;;
14169;SDS011;63889;50.596;8.690;2022-12-18T09:28:31;28.38;;;9.68;;
14169;SDS011;63889;50.596;8.690;2022-12-18T09:30:56;27.58;;;9.18;;
14169;SDS011;63889;50.596;8.690;2022-12-18T09:33:22;23.77;;;10.30;;
14169;SDS011;63889;50.596;8.690;2022-12-18T09:35:47;25.65;;;9.77;;
14169;SDS011;63889;50.596;8.690;2022-12-18T09:38:14;25.38;;;9.85;;
14169;SDS011;63889;50.596;8.690;2022-12-18T09:40:44;29.55;;;9.73;;
14169;SDS011;63889;50.596;8.690;2022-12-18T09:43:15;26.10;;;8.48;;
14169;SDS011;63889;50.596;8.690;2022-12-18T09:45:53;22.83;;;9.60;;
14169;SDS011;63889;50.596;8.690;2022-12-18T09:48:28;27.08;;;10.38;;
14169;SDS011;63889;50.596;8.690;2022-12-18T09:50:58;25.02;;;10.73;;
14169;SDS011;63889;50.596;8.690;2022-12-18T09:53:30;28.42;;;9.65;;
14169;SDS011;63889;50.596;8.690;2022-12-18T09:55:58;25.52;;;9.50;;
14169;SDS011;63889;50.596;8.690;2022-12-18T09:58:28;25.15;;;9.32;;
14169;SDS011;63889;50.596;8.690;2022-12-18T10:00:55;27.77;;;10.18;;
14169;SDS011;63889;50.596;8.690;2022-12-18T10:03:21;23.10;;;9.13;;
14169;SDS011;63889;50.596;8.690;2022-12-18T10:05:51;24.80;;;9.85;;
14169;SDS011;63889;50.596;8.690;2022-12-18T10:11:48;26.98;;;9.43;;
14169;SDS011;63889;50.596;8.690;2022-12-18T10:20:10;24.15;;;9.48;;
14169;SDS011;63889;50.596;8.690;2022-12-18T10:27:40;27.23;;;9.82;;
14169;SDS011;63889;50.596;8.690;2022-12-18T10:30:16;24.58;;;9.20;;
14169;SDS011;63889;50.596;8.690;2022-12-18T10:32:43;26.80;;;9.45;;
14169;SDS011;63889;50.596;8.690;2022-12-18T10:35:14;22.85;;;9.13;;
14169;SDS011;63889;50.596;8.690;2022-12-18T10:40:55;31.55;;;11.23;;
14169;SDS011;63889;50.596;8.690;2022-12-18T10:43:24;31.15;;;10.48;;
14169;SDS011;63889;50.596;8.690;2022-12-18T10:48:23;25.30;;;9.88;;
14169;SDS011;63889;50.596;8.690;2022-12-18T10:50:50;27.50;;;8.50;;
14169;SDS011;63889;50.596;8.690;2022-12-18T10:53:20;26.33;;;9.45;;
14169;SDS011;63889;50.596;8.690;2022-12-18T10:55:48;28.00;;;10.85;;
14169;SDS011;63889;50.596;8.690;2022-12-18T10:58:16;25.75;;;10.30;;
14169;SDS011;63889;50.596;8.690;2022-12-18T11:01:06;28.95;;;10.30;;
14169;SDS011;63889;50.596;8.690;2022-12-18T11:03:47;27.92;;;9.85;;
14169;SDS011;63889;50.596;8.690;2022-12-18T11:06:23;25.80;;;10.70;;
14169;SDS011;63889;50.596;8.690;2022-12-18T11:11:35;24.25;;;9.35;;
14169;SDS011;63889;50.596;8.690;2022-12-18T11:14:03;30.55;;;10.48;;
14169;SDS011;63889;50.596;8.690;2022-12-18T11:16:34;29.40;;;10.27;;
14169;SDS011;63889;50.596;8.690;2022-12-18T11:19:13;29.88;;;10.50;;
14169;SDS011;63889;50.596;8.690;2022-12-18T11:21:46;35.38;;;12.75;;
14169;SDS011;63889;50.596;8.690;2022-12-18T11:24:18;26.33;;;10.20;;
14169;SDS011;63889;50.596;8.690;2022-12-18T11:26:53;26.10;;;10.27;;
14169;SDS011;63889;50.596;8.690;2022-12-18T11:29:23;25.17;;;11.00;;
14169;SDS011;63889;50.596;8.690;2022-12-18T11:32:05;26.13;;;10.27;;
14169;SDS011;63889;50.596;8.690;2022-12-18T11:35:02;31.30;;;12.07;;
14169;SDS011;63889;50.596;8.690;2022-12-18T11:37:35;25.88;;;11.68;;
14169;SDS011;63889;50.596;8.690;2022-12-18T11:40:03;24.30;;;10.48;;
14169;SDS011;63889;50.596;8.690;2022-12-18T11:42:36;22.90;;;9.18;;
14169;SDS011;63889;50.596;8.690;2022-12-18T11:47:48;32.95;;;10.48;;
14169;SDS011;63889;50.596;8.690;2022-12-18T11:50:30;30.75;;;10.55;;
14169;SDS011;63889;50.596;8.690;2022-12-18T11:53:17;26.60;;;9.75;;
14169;SDS011;63889;50.596;8.690;2022-12-18T12:01:38;31.05;;;11.32;;
14169;SDS011;63889;50.596;8.690;2022-12-18T12:21:09;39.63;;;14.52;;
14169;SDS011;63889;50.596;8.690;2022-12-18T12:23:53;38.35;;;14.30;;
14169;SDS011;63889;50.596;8.690;2022-12-18T12:26:32;47.45;;;15.30;;
14169;SDS011;63889;50.596;8.690;2022-12-18T12:29:13;42.58;;;14.63;;
14169;SDS011;63889;50.596;8.690;2022-12-18T12:32:49;40.65;;;14.80;;
14169;SDS011;63889;50.596;8.690;2022-12-18T12:37:56;55.55;;;19.15;;
14169;SDS011;63889;50.596;8.690;2022-12-18T12:40:37;57.28;;;18.13;;
14169;SDS011;63889;50.596;8.690;2022-12-18T12:48:35;54.83;;;19.40;;
14169;SDS011;63889;50.596;8.690;2022-12-18T12:51:12;44.80;;;15.50;;
14169;SDS011;63889;50.596;8.690;2022-12-18T12:53:44;51.95;;;18.80;;
14169;SDS011;63889;50.596;8.690;2022-12-18T12:56:11;34.95;;;13.05;;
14169;SDS011;63889;50.596;8.690;2022-12-18T12:58:42;54.20;;;16.58;;
14169;SDS011;63889;50.596;8.690;2022-12-18T13:06:42;38.90;;;15.43;;
14169;SDS011;63889;50.596;8.690;2022-12-18T13:09:12;48.88;;;18.13;;
14169;SDS011;63889;50.596;8.690;2022-12-18T13:11:42;45.95;;;15.23;;
14169;SDS011;63889;50.596;8.690;2022-12-18T13:19:48;45.22;;;15.70;;
14169;SDS011;63889;50.596;8.690;2022-12-18T13:22:22;40.63;;;16.38;;
14169;SDS011;63889;50.596;8.690;2022-12-18T13:24:49;48.97;;;15.95;;
14169;SDS011;63889;50.596;8.690;2022-12-18T13:30:40;49.15;;;16.30;;
14169;SDS011;63889;50.596;8.690;2022-12-18T13:38:20;44.10;;;15.10;;
14169;SDS011;63889;50.596;8.690;2022-12-18T13:40:59;44.95;;;14.40;;
14169;SDS011;63889;50.596;8.690;2022-12-18T13:49:29;49.03;;;15.63;;
14169;SDS011;63889;50.596;8.690;2022-12-18T13:52:02;40.80;;;14.48;;
14169;SDS011;63889;50.596;8.690;2022-12-18T13:54:39;45.88;;;16.27;;
14169;SDS011;63889;50.596;8.690;2022-12-18T13:57:24;53.22;;;18.55;;
14169;SDS011;63889;50.596;8.690;2022-12-18T13:59:54;43.63;;;15.73;;
14169;SDS011;63889;50.596;8.690;2022-12-18T14:02:22;45.95;;;14.70;;
14169;SDS011;63889;50.596;8.690;2022-12-18T14:04:50;45.92;;;14.93;;
14169;SDS011;63889;50.596;8.690;2022-12-18T14:07:25;46.78;;;15.70;;
14169;SDS011;63889;50.596;8.690;2022-12-18T14:09:53;54.08;;;18.00;;
14169;SDS011;63889;50.596;8.690;2022-12-18T14:12:29;48.22;;;16.25;;
14169;SDS011;63889;50.596;8.690;2022-12-18T14:17:53;44.85;;;15.80;;
14169;SDS011;63889;50.596;8.690;2022-12-18T14:20:41;39.85;;;15.70;;
14169;SDS011;63889;50.596;8.690;2022-12-18T14:25:55;54.03;;;19.10;;
14169;SDS011;63889;50.596;8.690;2022-12-18T14:28:20;56.95;;;20.15;;
14169;SDS011;63889;50.596;8.690;2022-12-18T14:30:49;53.70;;;18.08;;
14169;SDS011;63889;50.596;8.690;2022-12-18T14:33:16;63.40;;;18.38;;
14169;SDS011;63889;50.596;8.690;2022-12-18T14:35:54;44.38;;;16.08;;
14169;SDS011;63889;50.596;8.690;2022-12-18T14:43:27;45.75;;;16.63;;
14169;SDS011;63889;50.596;8.690;2022-12-18T14:45:54;49.28;;;15.88;;
14169;SDS011;63889;50.596;8.690;2022-12-18T14:51:00;47.90;;;16.08;;
14169;SDS011;63889;50.596;8.690;2022-12-18T14:53:34;49.58;;;15.90;;
14169;SDS011;63889;50.596;8.690;2022-12-18T14:56:02;43.35;;;15.45;;
14169;SDS011;63889;50.596;8.690;2022-12-18T14:58:37;47.50;;;15.18;;
14169;SDS011;63889;50.596;8.690;2022-12-18T15:01:02;48.38;;;15.70;;
14169;SDS011;63889;50.596;8.690;2022-12-18T15:03:28;48.65;;;16.58;;
14169;SDS011;63889;50.596;8.690;2022-12-18T15:05:53;46.10;;;14.95;;
14169;SDS011;63889;50.596;8.690;2022-12-18T15:08:28;51.83;;;16.23;;
14169;SDS011;63889;50.596;8.690;2022-12-18T15:10:56;42.00;;;14.77;;
14169;SDS011;63889;50.596;8.690;2022-12-18T15:13:22;51.38;;;15.55;;
14169;SDS011;63889;50.596;8.690;2022-12-18T15:15:49;45.15;;;14.00;;
14169;SDS011;63889;50.596;8.690;2022-12-18T15:18:17;53.95;;;18.38;;
14169;SDS011;63889;50.596;8.690;2022-12-18T15:26:13;49.40;;;14.48;;
14169;SDS011;63889;50.596;8.690;2022-12-18T15:36:19;38.88;;;13.20;;
14169;SDS011;63889;50.596;8.690;2022-12-18T15:38:47;44.30;;;14.70;;
14169;SDS011;63889;50.596;8.690;2022-12-18T15:41:15;50.22;;;14.32;;
14169;SDS011;63889;50.596;8.690;2022-12-18T15:43:41;41.08;;;13.70;;
14169;SDS011;63889;50.596;8.690;2022-12-18T15:46:12;37.67;;;15.15;;
14169;SDS011;63889;50.596;8.690;2022-12-18T15:48:39;41.10;;;13.38;;
14169;SDS011;63889;50.596;8.690;2022-12-18T15:53:58;44.28;;;13.68;;
14169;SDS011;63889;50.596;8.690;2022-12-18T15:56:26;38.15;;;13.77;;
14169;SDS011;63889;50.596;8.690;2022-12-18T15:59:11;42.42;;;12.70;;
14169;SDS011;63889;50.596;8.690;2022-12-18T16:01:38;44.47;;;14.85;;
14169;SDS011;63889;50.596;8.690;2022-12-18T16:04:06;44.47;;;14.77;;
14169;SDS011;63889;50.596;8.690;2022-12-18T16:06:31;42.03;;;13.13;;
14169;SDS011;63889;50.596;8.690;2022-12-18T16:08:57;44.78;;;14.45;;
14169;SDS011;63889;50.596;8.690;2022-12-18T16:11:27;43.88;;;12.27;;
14169;SDS011;63889;50.596;8.690;2022-12-18T16:14:16;56.92;;;16.58;;
14169;SDS011;63889;50.596;8.690;2022-12-18T16:16:42;56.13;;;17.55;;
14169;SDS011;63889;50.596;8.690;2022-12-18T16:19:08;43.17;;;13.07;;
14169;SDS011;63889;50.596;8.690;2022-12-18T16:21:33;37.58;;;12.63;;
14169;SDS011;63889;50.596;8.690;2022-12-18T16:23:59;40.53;;;13.55;;
14169;SDS011;63889;50.596;8.690;2022-12-18T16:26:25;38.70;;;14.23;;
14169;SDS011;63889;50.596;8.690;2022-12-18T16:28:50;50.03;;;15.60;;
14169;SDS011;63889;50.596;8.690;2022-12-18T16:31:16;39.75;;;12.68;;
14169;SDS011;63889;50.596;8.690;2022-12-18T16:33:41;38.72;;;14.05;;
14169;SDS011;63889;50.596;8.690;2022-12-18T16:36:07;43.38;;;12.65;;
14169;SDS011;63889;50.596;8.690;2022-12-18T16:38:33;46.65;;;14.40;;
14169;SDS011;63889;50.596;8.690;2022-12-18T16:40:58;49.10;;;15.85;;
14169;SDS011;63889;50.596;8.690;2022-12-18T16:43:42;54.90;;;17.02;;
14169;SDS011;63889;50.596;8.690;2022-12-18T16:46:08;37.78;;;14.15;;
14169;SDS011;63889;50.596;8.690;2022-12-18T16:48:33;40.70;;;13.85;;
14169;SDS011;63889;50.596;8.690;2022-12-18T16:51:00;45.65;;;13.82;;
14169;SDS011;63889;50.596;8.690;2022-12-18T16:53:30;43.35;;;13.30;;
14169;SDS011;63889;50.596;8.690;2022-12-18T16:55:57;43.03;;;12.05;;
14169;SDS011;63889;50.596;8.690;2022-12-18T16:58:22;35.42;;;12.88;;
14169;SDS011;63889;50.596;8.690;2022-12-18T17:00:48;40.40;;;12.75;;